»·PEaware :: SKY519 KPRC-KHII

SKY519 :: KPRC-KHII

FLIGHT INFORMATION

Flight Status: Arrived
Operator:
Sky High Charters
More flights by this operator :: More flights under this callsign
Pilot: Luiz R. (29874)
Aircraft: MOONEY M-20 201 202 205 220 ATS MSE
(M20P)
More flights by this aircraft type
Origin: KPRC Love
United States
Destination: KHII Lake Havasu City
United States
More flights between these airports :: More routes between these airports
Route: +WNSKI1 MUMTE V12 EED
File this flight plan on PilotEdge
Remarks: SCENARIO 8
Altitude:
(Current/Filed)
10,000ft
Speed:
(Current/Filed)
160kts
Departed: 23-Oct-20 06:52 PM
Arrived: 23-Oct-20 08:00 PM
Distance/Time
Traveled:
96nm/1:08
Distance/Time
To Go:
Arrived

Flight Plot

Page will automatically refresh every two minutes.

Flight plan parsing failed; only flown route is shown


Map Options




Map Legend


Flown Route
Filed Route
Departure Airport
Arrival Airport
Navaid (VOR, NDB)
Fix

Horizontal Profiles

Position Reports

Time Latitude Longitude Heading Altitude Ground
Speed
23-Oct-20 18:22 34.653852 -112.422580 130 4996ft 0kts
23-Oct-20 18:23 34.653852 -112.422580 130 4996ft 0kts
23-Oct-20 18:24 34.653852 -112.422580 130 4996ft 0kts
23-Oct-20 18:25 34.653851 -112.422579 129 4996ft 0kts
23-Oct-20 18:26 34.653851 -112.422579 129 4996ft 0kts
23-Oct-20 18:27 34.653851 -112.422579 129 4996ft 0kts
23-Oct-20 18:28 34.653851 -112.422579 129 4996ft 0kts
23-Oct-20 18:29 34.653851 -112.422579 129 4996ft 0kts
23-Oct-20 18:30 34.653851 -112.422579 129 4996ft 0kts
23-Oct-20 18:31 34.653851 -112.422579 129 4996ft 0kts
23-Oct-20 18:32 34.653851 -112.422579 129 4996ft 0kts
23-Oct-20 18:33 34.653851 -112.422579 129 4996ft 0kts
23-Oct-20 18:34 34.653851 -112.422579 129 4996ft 0kts
23-Oct-20 18:35 34.653851 -112.422579 129 4996ft 0kts
23-Oct-20 18:36 34.653851 -112.422579 129 4996ft 0kts
23-Oct-20 18:37 34.653851 -112.422579 129 4996ft 0kts
23-Oct-20 18:38 34.653851 -112.422579 129 4996ft 0kts
23-Oct-20 18:39 34.653851 -112.422579 129 4996ft 0kts
23-Oct-20 18:40 34.653851 -112.422579 129 4996ft 0kts
23-Oct-20 18:41 34.653851 -112.422579 129 4996ft 0kts
23-Oct-20 18:42 34.653851 -112.422579 129 4996ft 0kts
23-Oct-20 18:43 34.653851 -112.422579 129 4996ft 0kts
23-Oct-20 18:44 34.653851 -112.422579 129 4996ft 0kts
23-Oct-20 18:45 34.653851 -112.422579 129 4996ft 0kts
23-Oct-20 18:46 34.654455 -112.421475 39 4992ft 6kts
23-Oct-20 18:47 34.656000 -112.419308 38 4981ft 22kts
23-Oct-20 18:48 34.661792 -112.413249 22 4949ft 16kts
23-Oct-20 18:49 34.662710 -112.412196 122 4946ft 0kts
23-Oct-20 18:50 34.662710 -112.412196 122 4946ft 0kts
23-Oct-20 18:51 34.655081 -112.418840 224 5164ft 84kts
23-Oct-20 18:52 34.633961 -112.436557 180 6400ft 89kts
23-Oct-20 18:53 34.619828 -112.410477 92 7538ft 112kts
23-Oct-20 18:54 34.637520 -112.373961 62 8386ft 143kts
23-Oct-20 18:55 34.627948 -112.336527 176 9377ft 129kts
23-Oct-20 18:56 34.628380 -112.367339 317 9964ft 158kts
23-Oct-20 18:57 34.662533 -112.370142 92 10162ft 190kts
23-Oct-20 18:58 34.622914 -112.334886 171 9864ft 183kts
23-Oct-20 18:59 34.587051 -112.295239 128 9864ft 189kts
23-Oct-20 19:00 34.553232 -112.246976 135 9864ft 187kts
23-Oct-20 19:01 34.516649 -112.261381 252 9870ft 172kts
23-Oct-20 19:02 34.504934 -112.317580 252 9890ft 172kts
23-Oct-20 19:03 34.486747 -112.369421 244 9888ft 160kts
23-Oct-20 19:04 34.467823 -112.417248 244 9893ft 160kts
23-Oct-20 19:05 34.449467 -112.468686 252 9891ft 169kts
23-Oct-20 19:06 34.444322 -112.525653 272 9890ft 173kts
23-Oct-20 19:07 34.457276 -112.582727 289 9890ft 177kts
23-Oct-20 19:08 34.483869 -112.633544 313 9890ft 182kts
23-Oct-20 19:09 34.523908 -112.671948 320 9892ft 184kts
23-Oct-20 19:10 34.566054 -112.707437 322 9892ft 185kts
23-Oct-20 19:11 34.607152 -112.744760 319 9891ft 184kts
23-Oct-20 19:12 34.648687 -112.781177 328 9893ft 186kts
23-Oct-20 19:13 34.698630 -112.800010 349 9892ft 190kts
23-Oct-20 19:14 34.723599 -112.841650 269 9892ft 174kts
23-Oct-20 19:15 34.718091 -112.899308 256 9893ft 173kts
23-Oct-20 19:16 34.718898 -112.958312 271 9891ft 174kts
23-Oct-20 19:17 34.722184 -113.017286 271 9891ft 174kts
23-Oct-20 19:18 34.725195 -113.076054 270 9879ft 173kts
23-Oct-20 19:19 34.727277 -113.134217 270 9855ft 171kts
23-Oct-20 19:20 34.729273 -113.192203 270 9830ft 170kts
23-Oct-20 19:21 34.731226 -113.249912 270 9806ft 170kts
23-Oct-20 19:22 34.733152 -113.307534 270 9790ft 170kts
23-Oct-20 19:23 34.735047 -113.365109 270 9790ft 170kts
23-Oct-20 19:24 34.736910 -113.422508 270 9790ft 169kts
23-Oct-20 19:25 34.738748 -113.479756 269 9788ft 166kts
23-Oct-20 19:26 34.740471 -113.534751 269 9789ft 161kts
23-Oct-20 19:27 34.742148 -113.588952 269 9789ft 160kts
23-Oct-20 19:28 34.743804 -113.643069 269 9789ft 159kts
23-Oct-20 19:29 34.745421 -113.696590 269 9792ft 160kts
23-Oct-20 19:30 34.747019 -113.750572 269 9791ft 160kts
23-Oct-20 19:31 34.748608 -113.804609 268 9902ft 152kts
23-Oct-20 19:32 34.749986 -113.856688 268 9980ft 158kts
23-Oct-20 19:33 34.751530 -113.910931 268 9954ft 161kts
23-Oct-20 19:34 34.753065 -113.965689 268 9930ft 162kts
23-Oct-20 19:36 34.754574 -114.020384 268 9737ft 162kts
23-Oct-20 19:37 34.756058 -114.075102 268 9466ft 162kts
23-Oct-20 19:38 34.757547 -114.130852 268 9071ft 166kts
23-Oct-20 19:39 34.759025 -114.187219 268 8673ft 167kts
23-Oct-20 19:40 34.760463 -114.243127 268 8280ft 167kts
23-Oct-20 19:41 34.761908 -114.300172 268 7885ft 169kts
23-Oct-20 19:42 34.763323 -114.357114 268 7487ft 168kts
23-Oct-20 19:43 34.764699 -114.413594 268 7087ft 166kts
23-Oct-20 19:44 34.765995 -114.467536 269 6993ft 152kts
23-Oct-20 19:45 34.783502 -114.511591 314 6976ft 151kts
23-Oct-20 19:46 34.816162 -114.545341 329 6610ft 144kts
23-Oct-20 19:47 34.844115 -114.515979 124 5029ft 169kts
23-Oct-20 19:48 34.809653 -114.493279 158 4872ft 128kts
23-Oct-20 19:49 34.773389 -114.478505 168 4977ft 150kts
23-Oct-20 19:50 34.730774 -114.470900 180 4672ft 157kts
23-Oct-20 19:51 34.691115 -114.452930 151 3760ft 137kts
23-Oct-20 19:51 34.670388 -114.436237 151 2888ft 97kts
23-Oct-20 19:53 34.647774 -114.416126 143 2455ft 81kts
23-Oct-20 19:53 34.632523 -114.402747 153 2081ft 83kts
23-Oct-20 19:55 34.610626 -114.386488 150 1587ft 78kts
23-Oct-20 19:55 34.595089 -114.375406 148 1140ft 76kts
23-Oct-20 19:57 34.579840 -114.354714 119 1360ft 68kts
23-Oct-20 19:57 34.572260 -114.337610 154 1769ft 77kts
23-Oct-20 19:58 34.556165 -114.343635 278 1616ft 85kts
23-Oct-20 19:59 34.569697 -114.357293 333 755ft 35kts
23-Oct-20 20:00 34.574726 -114.361002 245 763ft 3kts
23-Oct-20 20:02 34.574751 -114.362161 331 757ft 0kts

Navigation Log

Ident Type
Flight plan parsing failed, navigation log unavailable